Nord Kitan — 9V3632 — position and weather

sailwx.info

Track history (hours):
 
Tides and Currents Weather Stations Pressure Air Temp Water Temp Dewpoint Dewpoint Depression Visibility Wind Speed Wind Dir Waves Ship Positions

Nord Kitan

Last reported at 2018-Jul-16 13:44 UTC. Time now 2018-Jul-18 12:32 UTC.
Position S 25°42' W 048°14'.

Length 200 m; draft 8.8 m.

Type: Cargo ship. MMSI: 563008700.

Date/timePositionNaut miles runAvg speedWind from/ knotsBaromVisibWave heightAir tempDewpointWater temp
2018-Jul-16 13:44S 25°42' W 048°14'0 0.0
2018-Jul-16 08:56S 25°42' W 048°14'0 0.0
2018-Jul-16 08:26S 25°42' W 048°14'0 0.0
2018-Jul-15 12:55S 25°42' W 048°14'0 0.1
2018-Jul-15 12:19S 25°42' W 048°14'0 0.0
2018-Jul-15 09:01S 25°42' W 048°14'0 0.0
2018-Jul-15 08:43S 25°42' W 048°14'0 0.1
2018-Jul-15 08:07S 25°42' W 048°14'0 0.0
2018-Jul-15 07:58S 25°42' W 048°14'0 0.0
2018-Jul-15 05:37S 25°42' W 048°14'0 0.0
2018-Jul-15 05:25S 25°42' W 048°14'0 0.0
2018-Jul-15 04:49S 25°42' W 048°14'0 0.3
2018-Jul-15 04:20S 25°42' W 048°14'1 1.9
2018-Jul-15 03:51S 25°43' W 048°14'10 8.0
2018-Jul-15 02:33S 25°52' W 048°08'011.8
2018-Jul-15 02:30S 25°52' W 048°08'611.5
2018-Jul-15 02:00S 25°58' W 048°07'611.6
2018-Jul-15 01:31S 26°04' W 048°07'611.7
2018-Jul-15 01:00S 26°10' W 048°07'611.7
2018-Jul-15 00:29S 26°16' W 048°06'611.7
2018-Jul-15 00:00S 26°21' W 048°07'612.1
2018-Jul-14 23:30S 26°27' W 048°07'612.0
2018-Jul-14 22:58S 26°34' W 048°07'511.6
2018-Jul-14 22:30S 26°39' W 048°07'611.8
2018-Jul-14 22:01S 26°45' W 048°07'612.3
2018-Jul-14 21:30S 26°51' W 048°07'612.5
2018-Jul-14 21:00S 26°57' W 048°07'612.4
2018-Jul-14 20:30S 27°04' W 048°07'612.2
2018-Jul-14 20:00S 27°10' W 048°07'611.9
2018-Jul-14 19:30S 27°16' W 048°07'611.7
2018-Jul-14 18:59S 27°22' W 048°07'612.1
2018-Jul-14 18:31S 27°27' W 048°07'612.2
2018-Jul-14 17:59S 27°34' W 048°07'612.3
2018-Jul-14 17:30S 27°40' W 048°09'612.2
2018-Jul-14 16:59S 27°46' W 048°11'611.8
2018-Jul-14 16:30S 27°51' W 048°13'611.5
2018-Jul-14 16:01S 27°57' W 048°15'611.6
2018-Jul-14 15:30S 28°02' W 048°16'611.9
2018-Jul-14 15:00S 28°08' W 048°18'612.0
2018-Jul-14 14:30S 28°14' W 048°20'1212.4
2018-Jul-14 13:30S 28°26' W 048°24'713.4
2018-Jul-14 13:01S 28°32' W 048°26'713.6
2018-Jul-14 12:29S 28°39' W 048°29'1412.8
2018-Jul-14 11:24S 28°50' W 048°38'  
Track history (hours):
 
Tides and Currents Weather Stations Pressure Air Temp Water Temp Dewpoint Dewpoint Depression Visibility Wind Speed Wind Dir Waves Ship Positions

Nord Kitan

Last reported at 2018-Jul-16 13:44 UTC. Time now 2018-Jul-18 12:32 UTC.
Position S 25°42' W 048°14'.

Length 200 m; draft 8.8 m.

Type: Cargo ship. MMSI: 563008700.

Date/timePositionNaut miles runAvg speedWind from/ knotsBaromVisibWave heightAir tempDewpointWater temp
2018-Jul-16 13:44S 25°42' W 048°14'0 0.0
2018-Jul-16 08:56S 25°42' W 048°14'0 0.0
2018-Jul-16 08:26S 25°42' W 048°14'0 0.0
2018-Jul-15 12:55S 25°42' W 048°14'0 0.1
2018-Jul-15 12:19S 25°42' W 048°14'0 0.0
2018-Jul-15 09:01S 25°42' W 048°14'0 0.0
2018-Jul-15 08:43S 25°42' W 048°14'0 0.1
2018-Jul-15 08:07S 25°42' W 048°14'0 0.0
2018-Jul-15 07:58S 25°42' W 048°14'0 0.0
2018-Jul-15 05:37S 25°42' W 048°14'0 0.0
2018-Jul-15 05:25S 25°42' W 048°14'0 0.0
2018-Jul-15 04:49S 25°42' W 048°14'0 0.3
2018-Jul-15 04:20S 25°42' W 048°14'1 1.9
2018-Jul-15 03:51S 25°43' W 048°14'10 8.0
2018-Jul-15 02:33S 25°52' W 048°08'011.8
2018-Jul-15 02:30S 25°52' W 048°08'611.5
2018-Jul-15 02:00S 25°58' W 048°07'611.6
2018-Jul-15 01:31S 26°04' W 048°07'611.7
2018-Jul-15 01:00S 26°10' W 048°07'611.7
2018-Jul-15 00:29S 26°16' W 048°06'611.7
2018-Jul-15 00:00S 26°21' W 048°07'612.1
2018-Jul-14 23:30S 26°27' W 048°07'612.0
2018-Jul-14 22:58S 26°34' W 048°07'511.6
2018-Jul-14 22:30S 26°39' W 048°07'611.8
2018-Jul-14 22:01S 26°45' W 048°07'612.3
2018-Jul-14 21:30S 26°51' W 048°07'612.5
2018-Jul-14 21:00S 26°57' W 048°07'612.4
2018-Jul-14 20:30S 27°04' W 048°07'612.2
2018-Jul-14 20:00S 27°10' W 048°07'611.9
2018-Jul-14 19:30S 27°16' W 048°07'611.7
2018-Jul-14 18:59S 27°22' W 048°07'612.1
2018-Jul-14 18:31S 27°27' W 048°07'612.2
2018-Jul-14 17:59S 27°34' W 048°07'612.3
2018-Jul-14 17:30S 27°40' W 048°09'612.2
2018-Jul-14 16:59S 27°46' W 048°11'611.8
2018-Jul-14 16:30S 27°51' W 048°13'611.5
2018-Jul-14 16:01S 27°57' W 048°15'611.6
2018-Jul-14 15:30S 28°02' W 048°16'611.9
2018-Jul-14 15:00S 28°08' W 048°18'612.0
2018-Jul-14 14:30S 28°14' W 048°20'1212.4
2018-Jul-14 13:30S 28°26' W 048°24'713.4
2018-Jul-14 13:01S 28°32' W 048°26'713.6
2018-Jul-14 12:29S 28°39' W 048°29'1412.8
2018-Jul-14 11:24S 28°50' W 048°38'  

Dump ship's entire track history